UMKK 100030Z 24004MPS CAVOK 11/11 Q1027 R24/CLRD95 NOSIG RMK QFE769/1026
QNH:(hPa/inHg/mmHg)1027 / 30.33 / 770
QFE:(hPa/inHg/mmHg)1025 / 30.28 / 769
Temperature11
Dew Point11
Visibility> 10000
WeatherCAVOK
Cloud Cover
Transition Altitude4000 ft.
Transition LevelFL50
SQUAWK